createdAt,value
2023-03-20T00:00:02.040Z,8.22
2023-03-20T00:01:01.577Z,8.23
2023-03-20T00:02:02.092Z,8.23
2023-03-20T00:03:01.499Z,8.23
2023-03-20T00:04:02.022Z,8.24
2023-03-20T00:05:01.620Z,8.26
2023-03-20T00:06:01.986Z,8.26
2023-03-20T00:07:01.420Z,8.26
2023-03-20T00:08:01.875Z,8.24
2023-03-20T00:09:07.171Z,8.24
2023-03-20T00:10:01.879Z,8.26
2023-03-20T00:11:01.334Z,8.26
2023-03-20T00:12:03.472Z,8.26
2023-03-20T00:13:02.282Z,8.26
2023-03-20T00:14:02.045Z,8.26
2023-03-20T00:15:03.167Z,8.27
2023-03-20T00:16:01.986Z,8.27
2023-03-20T00:17:03.172Z,8.29
2023-03-20T00:18:03.637Z,8.3
2023-03-20T00:19:01.397Z,8.32
2023-03-20T00:20:01.878Z,8.34
2023-03-20T00:21:01.322Z,8.34
2023-03-20T00:22:01.817Z,8.35
2023-03-20T00:24:01.853Z,8.37
2023-03-20T00:25:02.278Z,8.37
2023-03-20T00:26:01.716Z,8.39
2023-03-20T00:27:03.869Z,8.42
2023-03-20T00:28:01.709Z,8.43
2023-03-20T00:29:02.208Z,8.44
2023-03-20T00:30:01.688Z,8.44
2023-03-20T00:31:02.161Z,8.45
2023-03-20T00:32:01.719Z,8.45
2023-03-20T00:33:02.185Z,8.45
2023-03-20T00:34:01.589Z,8.45
2023-03-20T00:35:02.038Z,8.46
2023-03-20T00:36:01.620Z,8.47
2023-03-20T00:37:02.029Z,8.47
2023-03-20T00:38:01.477Z,8.49
2023-03-20T00:39:02.042Z,8.51
2023-03-20T00:40:01.401Z,8.52
2023-03-20T00:41:03.596Z,8.53
2023-03-20T00:42:01.393Z,8.55
2023-03-20T00:43:01.907Z,8.56
2023-03-20T00:44:01.369Z,8.58
2023-03-20T00:45:01.848Z,8.59
2023-03-20T00:46:02.431Z,8.59
2023-03-20T00:47:01.980Z,8.6
2023-03-20T00:48:02.283Z,8.59
2023-03-20T00:49:03.410Z,8.6
2023-03-20T00:50:02.212Z,8.6
2023-03-20T00:51:03.312Z,8.61
2023-03-20T00:52:02.151Z,8.62
2023-03-20T00:53:01.642Z,8.63
2023-03-20T00:54:03.807Z,8.63
2023-03-20T00:55:01.577Z,8.63
2023-03-20T00:56:02.049Z,8.64
2023-03-20T00:57:01.569Z,8.64
2023-03-20T00:58:02.056Z,8.65
2023-03-20T00:59:01.568Z,8.67
2023-03-20T01:00:01.991Z,8.68
2023-03-20T01:01:03.229Z,8.68
2023-03-20T01:02:01.992Z,8.68
2023-03-20T01:03:03.106Z,8.7
2023-03-20T01:04:03.550Z,8.68
2023-03-20T01:05:01.437Z,8.71
2023-03-20T01:06:03.552Z,8.71
2023-03-20T01:07:01.324Z,8.72
2023-03-20T01:08:01.807Z,8.71
2023-03-20T01:09:02.277Z,8.71
2023-03-20T01:10:01.817Z,8.71
2023-03-20T01:11:02.275Z,8.72
2023-03-20T01:12:01.720Z,8.72
2023-03-20T01:13:02.213Z,8.73
2023-03-20T01:14:01.717Z,8.71
2023-03-20T01:15:03.870Z,8.7
2023-03-20T01:16:01.804Z,8.68
2023-03-20T01:17:02.194Z,8.7
2023-03-20T01:18:01.641Z,8.68
2023-03-20T01:19:02.115Z,8.68
2023-03-20T01:20:01.563Z,8.67
2023-03-20T01:21:02.123Z,8.66
2023-03-20T01:22:01.565Z,8.65
2023-03-20T01:23:02.039Z,8.65
2023-03-20T01:24:01.479Z,8.66
2023-03-20T01:25:01.993Z,8.65
2023-03-20T01:26:01.473Z,8.65
2023-03-20T01:27:03.571Z,8.64
2023-03-20T01:28:01.408Z,8.63
2023-03-20T01:29:01.881Z,8.62
2023-03-20T01:30:01.322Z,8.6
2023-03-20T01:31:01.810Z,8.6
2023-03-20T01:32:02.346Z,8.6
2023-03-20T01:33:01.910Z,8.59
2023-03-20T01:34:02.278Z,8.59
2023-03-20T01:35:01.731Z,8.59
2023-03-20T01:36:02.233Z,8.59
2023-03-20T01:37:01.728Z,8.6
2023-03-20T01:38:02.221Z,8.61
2023-03-20T01:39:03.310Z,8.62
2023-03-20T01:40:03.795Z,8.63
2023-03-20T01:41:03.315Z,8.64
2023-03-20T01:42:02.044Z,8.64
2023-03-20T01:43:01.564Z,8.64
2023-03-20T01:44:02.041Z,8.65
2023-03-20T01:45:03.145Z,8.66
2023-03-20T01:46:02.079Z,8.66
2023-03-20T01:47:03.152Z,8.67
2023-03-20T01:48:02.007Z,8.67
2023-03-20T01:49:03.088Z,8.66
2023-03-20T01:50:01.976Z,8.66
2023-03-20T01:51:01.409Z,8.66
2023-03-20T01:52:01.804Z,8.65
2023-03-20T01:54:01.830Z,8.64
2023-03-20T01:55:04.030Z,8.64
2023-03-20T01:56:01.818Z,8.64
2023-03-20T01:57:03.970Z,8.65
2023-03-20T01:58:04.107Z,8.65
2023-03-20T01:59:02.230Z,8.64
2023-03-20T02:00:03.340Z,8.64
2023-03-20T02:01:03.870Z,8.64
2023-03-20T02:02:01.631Z,8.64
2023-03-20T02:03:02.139Z,8.63
2023-03-20T02:04:01.609Z,8.63
2023-03-20T02:05:03.822Z,8.63
2023-03-20T02:06:01.567Z,8.63
2023-03-20T02:07:03.736Z,8.63
2023-03-20T02:08:01.492Z,8.64
2023-03-20T02:09:02.082Z,8.64
2023-03-20T02:10:01.526Z,8.64
2023-03-20T02:11:01.973Z,8.64
2023-03-20T02:12:01.513Z,8.64
2023-03-20T02:13:03.648Z,8.64
2023-03-20T02:14:01.402Z,8.63
2023-03-20T02:15:01.891Z,8.62
2023-03-20T02:16:01.446Z,8.61
2023-03-20T02:17:01.947Z,8.61
2023-03-20T02:18:01.325Z,8.6
2023-03-20T02:19:01.888Z,8.58
2023-03-20T02:20:02.318Z,8.55
2023-03-20T02:21:01.837Z,8.55
2023-03-20T02:22:02.285Z,8.53
2023-03-20T02:23:01.730Z,8.56
2023-03-20T02:24:03.984Z,8.56
2023-03-20T02:25:01.731Z,8.53
2023-03-20T02:26:02.232Z,8.52
2023-03-20T02:27:03.325Z,8.51
2023-03-20T02:28:02.121Z,8.51
2023-03-20T02:29:01.643Z,8.51
2023-03-20T02:30:02.119Z,8.49
2023-03-20T02:31:01.706Z,8.49
2023-03-20T02:32:03.719Z,8.49
2023-03-20T02:33:01.635Z,8.48
2023-03-20T02:34:03.723Z,8.45
2023-03-20T02:35:01.501Z,8.43
2023-03-20T02:36:02.011Z,8.42
2023-03-20T02:37:01.466Z,8.41
2023-03-20T02:38:01.958Z,8.41
2023-03-20T02:39:01.389Z,8.39
2023-03-20T02:40:01.996Z,8.36
2023-03-20T02:41:01.392Z,8.34
2023-03-20T02:42:01.864Z,8.34
2023-03-20T02:43:01.306Z,8.33
2023-03-20T02:44:01.828Z,8.32
2023-03-20T02:46:01.827Z,8.33
2023-03-20T02:47:02.272Z,8.33
2023-03-20T02:48:01.805Z,8.33
2023-03-20T02:49:02.290Z,8.31
2023-03-20T02:50:01.707Z,8.3
2023-03-20T02:51:02.273Z,8.28
2023-03-20T02:52:01.717Z,8.27
2023-03-20T02:53:02.199Z,8.27
2023-03-20T02:54:03.333Z,8.24
2023-03-20T02:55:02.110Z,8.21
2023-03-20T02:56:01.623Z,8.19
2023-03-20T02:57:03.791Z,8.17
2023-03-20T02:58:03.224Z,8.15
2023-03-20T02:59:02.024Z,8.12
2023-03-20T03:00:01.571Z,8.09
2023-03-20T03:01:02.039Z,8.08
2023-03-20T03:02:01.555Z,8.07
2023-03-20T03:03:02.047Z,8.06
2023-03-20T03:04:01.490Z,8.06
2023-03-20T03:05:01.969Z,8.04
2023-03-20T03:06:01.395Z,8.04
2023-03-20T03:07:01.896Z,8.02
2023-03-20T03:08:01.401Z,8
2023-03-20T03:09:01.907Z,7.98
2023-03-20T03:10:01.352Z,7.97
2023-03-20T03:11:01.799Z,7.94
2023-03-20T03:12:03.211Z,7.93
2023-03-20T03:13:01.961Z,7.93
2023-03-20T03:14:01.390Z,7.91
2023-03-20T03:15:03.571Z,7.89
2023-03-20T03:16:03.188Z,7.88
2023-03-20T03:17:01.885Z,7.86
2023-03-20T03:18:01.306Z,7.82
2023-03-20T03:19:01.796Z,7.78
2023-03-20T03:20:02.277Z,7.74
2023-03-20T03:21:01.813Z,7.71
2023-03-20T03:22:02.274Z,7.68
2023-03-20T03:23:01.708Z,7.65
2023-03-20T03:24:02.203Z,7.61
2023-03-20T03:25:01.713Z,7.59
2023-03-20T03:26:02.210Z,7.56
2023-03-20T03:27:03.306Z,7.48
2023-03-20T03:28:02.107Z,7.43
2023-03-20T03:29:01.710Z,7.41
2023-03-20T03:30:02.118Z,7.39
2023-03-20T03:31:03.292Z,7.35
2023-03-20T03:32:02.034Z,7.33
2023-03-20T03:33:01.597Z,7.29
2023-03-20T03:34:02.073Z,7.27
2023-03-20T03:35:01.472Z,7.26
2023-03-20T03:36:02.054Z,7.25
2023-03-20T03:37:01.500Z,7.22
2023-03-20T03:38:03.554Z,7.18
2023-03-20T03:39:01.394Z,7.15
2023-03-20T03:40:01.918Z,7.14
2023-03-20T03:41:03.023Z,7.12
2023-03-20T03:42:01.816Z,7.12
2023-03-20T03:44:01.798Z,7.08
2023-03-20T03:45:02.267Z,7.05
2023-03-20T03:46:03.383Z,7.03
2023-03-20T03:47:02.267Z,7.04
2023-03-20T03:48:01.762Z,7.07
2023-03-20T03:49:02.187Z,7.05
2023-03-20T03:50:01.712Z,7.05
2023-03-20T03:51:02.192Z,7.03
2023-03-20T03:52:01.627Z,7.03
2023-03-20T03:53:02.130Z,7.01
2023-03-20T03:54:03.311Z,6.99
2023-03-20T03:55:02.149Z,6.98
2023-03-20T03:56:01.594Z,6.97
2023-03-20T03:57:02.121Z,6.93
2023-03-20T03:58:01.582Z,6.89
2023-03-20T03:59:02.034Z,6.87
2023-03-20T04:00:01.468Z,6.87
2023-03-20T04:01:01.955Z,6.85
2023-03-20T04:02:01.543Z,6.83
2023-03-20T04:03:01.966Z,6.81
2023-03-20T04:04:01.412Z,6.79
2023-03-20T04:05:01.919Z,6.75
2023-03-20T04:06:01.315Z,6.73
2023-03-20T04:07:03.476Z,6.73
2023-03-20T04:08:03.960Z,6.71
2023-03-20T04:09:01.820Z,6.68
2023-03-20T04:10:02.272Z,6.63
2023-03-20T04:11:03.418Z,6.59
2023-03-20T04:12:02.229Z,6.56
2023-03-20T04:13:01.714Z,6.55
2023-03-20T04:14:02.194Z,6.53
2023-03-20T04:15:03.637Z,6.51
2023-03-20T04:16:02.139Z,6.49
2023-03-20T04:17:01.673Z,6.5
2023-03-20T04:18:02.140Z,6.5
2023-03-20T04:19:03.234Z,6.49
2023-03-20T04:20:02.086Z,6.46
2023-03-20T04:21:01.562Z,6.44
2023-03-20T04:22:02.039Z,6.41
2023-03-20T04:23:03.157Z,6.38
2023-03-20T04:24:01.973Z,6.37
2023-03-20T04:25:01.574Z,6.36
2023-03-20T04:26:03.646Z,6.35
2023-03-20T04:27:01.392Z,6.33
2023-03-20T04:28:01.886Z,6.3
2023-03-20T04:29:01.397Z,6.27
2023-03-20T04:30:01.880Z,6.23
2023-03-20T04:31:01.321Z,6.21
2023-03-20T04:32:01.804Z,6.2
2023-03-20T04:33:03.987Z,6.2
2023-03-20T04:34:01.730Z,6.17
2023-03-20T04:35:02.299Z,6.14
2023-03-20T04:36:01.839Z,6.12
2023-03-20T04:37:03.876Z,6.1
2023-03-20T04:38:01.716Z,6.08
2023-03-20T04:39:03.883Z,6.07
2023-03-20T04:40:03.357Z,6.07
2023-03-20T04:41:03.798Z,6.08
2023-03-20T04:42:03.320Z,6.12
2023-03-20T04:43:02.138Z,6.13
2023-03-20T04:44:01.570Z,6.13
2023-03-20T04:45:02.047Z,6.12
2023-03-20T04:46:01.641Z,6.11
2023-03-20T04:47:02.048Z,6.13
2023-03-20T04:48:03.165Z,6.14
2023-03-20T04:49:01.984Z,6.15
2023-03-20T04:50:01.498Z,6.16
2023-03-20T04:51:01.985Z,6.17
2023-03-20T04:52:01.409Z,6.2
2023-03-20T04:53:01.874Z,6.2
2023-03-20T04:54:03.080Z,6.21
2023-03-20T04:55:03.557Z,6.24
2023-03-20T04:56:02.137Z,6.27
2023-03-20T04:57:01.798Z,6.3
2023-03-20T04:58:02.299Z,6.35
2023-03-20T04:59:03.467Z,6.39
2023-03-20T05:00:03.947Z,6.43
2023-03-20T05:01:01.761Z,6.5
2023-03-20T05:02:02.289Z,6.53
2023-03-20T05:03:01.721Z,6.58
2023-03-20T05:04:02.250Z,6.63
2023-03-20T05:05:03.343Z,6.65
2023-03-20T05:06:02.189Z,6.68
2023-03-20T05:07:01.630Z,6.71
2023-03-20T05:08:02.116Z,6.74
2023-03-20T05:09:01.676Z,6.75
2023-03-20T05:10:02.121Z,6.78
2023-03-20T05:11:01.571Z,6.8
2023-03-20T05:12:02.024Z,6.83
2023-03-20T05:13:01.637Z,6.85
2023-03-20T05:14:03.799Z,6.87
2023-03-20T05:15:01.555Z,6.87
2023-03-20T05:16:02.066Z,6.89
2023-03-20T05:17:01.598Z,6.9
2023-03-20T05:18:02.044Z,6.91
2023-03-20T05:19:03.155Z,6.93
2023-03-20T05:20:01.969Z,6.93
2023-03-20T05:21:01.422Z,6.94
2023-03-20T05:22:01.958Z,6.95
2023-03-20T05:23:01.388Z,6.95
2023-03-20T05:24:01.874Z,6.95
2023-03-20T05:25:02.982Z,6.95
2023-03-20T05:26:01.892Z,6.94
2023-03-20T05:27:01.350Z,6.94
2023-03-20T05:28:01.846Z,6.95
2023-03-20T05:29:02.273Z,6.96
2023-03-20T05:30:01.806Z,6.96
2023-03-20T05:31:04.050Z,6.98
2023-03-20T05:32:01.705Z,6.99
2023-03-20T05:33:03.979Z,7
2023-03-20T05:34:01.764Z,7.01
2023-03-20T05:35:02.121Z,7.03
2023-03-20T05:36:01.757Z,7.03
2023-03-20T05:37:02.125Z,7.04
2023-03-20T05:38:03.252Z,7.05
2023-03-20T05:39:03.710Z,7.08
2023-03-20T05:40:03.149Z,7.1
2023-03-20T05:41:03.644Z,7.12
2023-03-20T05:42:03.159Z,7.14
2023-03-20T05:43:01.967Z,7.17
2023-03-20T05:44:01.454Z,7.22
2023-03-20T05:45:01.917Z,7.26
2023-03-20T05:46:01.470Z,7.3
2023-03-20T05:47:03.727Z,7.32
2023-03-20T05:48:02.993Z,7.37
2023-03-20T05:49:01.807Z,7.4
2023-03-20T05:51:01.862Z,7.46
2023-03-20T05:52:02.291Z,7.5
2023-03-20T05:53:01.782Z,7.54
2023-03-20T05:54:02.281Z,7.58
2023-03-20T05:55:01.718Z,7.6
2023-03-20T05:56:02.220Z,7.63
2023-03-20T05:57:01.870Z,7.65
2023-03-20T05:58:02.270Z,7.69
2023-03-20T05:59:01.639Z,7.73
2023-03-20T06:00:02.116Z,7.77
2023-03-20T06:01:01.674Z,7.79
2023-03-20T06:02:02.127Z,7.82
2023-03-20T06:03:01.630Z,7.84
2023-03-20T06:04:03.812Z,7.85
2023-03-20T06:05:01.472Z,7.85
2023-03-20T06:06:02.076Z,7.86
2023-03-20T06:07:01.484Z,7.89
2023-03-20T06:08:03.660Z,7.91
2023-03-20T06:09:01.665Z,7.93
2023-03-20T06:10:01.973Z,7.94
2023-03-20T06:11:01.426Z,7.96
2023-03-20T06:12:01.883Z,7.98
2023-03-20T06:13:02.370Z,8
2023-03-20T06:14:01.961Z,8.01
2023-03-20T06:15:01.497Z,8.01
2023-03-20T06:16:02.033Z,8.03
2023-03-20T06:17:01.450Z,8.04
2023-03-20T06:18:03.574Z,8.06
2023-03-20T06:19:01.414Z,8.07
2023-03-20T06:20:01.883Z,8.08
2023-03-20T06:21:01.412Z,8.11
2023-03-20T06:22:03.573Z,8.13
2023-03-20T06:23:01.323Z,8.14
2023-03-20T06:24:01.839Z,8.14
2023-03-20T06:25:03.977Z,8.16
2023-03-20T06:26:01.880Z,8.17
2023-03-20T06:27:02.291Z,8.18
2023-03-20T06:28:01.740Z,8.21
2023-03-20T06:29:03.874Z,8.23
2023-03-20T06:30:01.734Z,8.28
2023-03-20T06:31:02.210Z,8.31
2023-03-20T06:32:01.637Z,8.35
2023-03-20T06:33:02.178Z,8.37
2023-03-20T06:34:01.632Z,8.41
2023-03-20T06:35:03.709Z,8.44
2023-03-20T06:36:01.621Z,8.45
2023-03-20T06:37:02.053Z,8.46
2023-03-20T06:38:01.572Z,8.47
2023-03-20T06:39:02.039Z,8.5
2023-03-20T06:40:01.474Z,8.52
2023-03-20T06:41:01.977Z,8.55
2023-03-20T06:42:01.466Z,8.57
2023-03-20T06:43:01.988Z,8.6
2023-03-20T06:44:03.065Z,8.64
2023-03-20T06:45:01.875Z,8.66
2023-03-20T06:46:01.385Z,8.7
2023-03-20T06:47:03.554Z,8.74
2023-03-20T06:48:01.319Z,8.77
2023-03-20T06:49:01.787Z,8.8
2023-03-20T06:50:03.959Z,8.83
2023-03-20T06:51:01.791Z,8.89
2023-03-20T06:52:02.266Z,8.94
2023-03-20T06:53:01.777Z,8.94
2023-03-20T06:54:02.239Z,8.95
2023-03-20T06:55:03.384Z,8.97
2023-03-20T06:56:02.183Z,9.02
2023-03-20T06:57:01.633Z,9.04
2023-03-20T06:58:03.808Z,9.07
2023-03-20T06:59:01.646Z,9.1
2023-03-20T07:00:02.157Z,9.11
2023-03-20T07:01:01.640Z,9.12
2023-03-20T07:02:02.082Z,9.14
2023-03-20T07:03:02.385Z,9.12
2023-03-20T07:04:02.050Z,9.14
2023-03-20T07:05:01.501Z,9.15
2023-03-20T07:06:03.635Z,9.15
2023-03-20T07:07:01.475Z,9.15
2023-03-20T07:08:01.949Z,9.17
2023-03-20T07:09:01.403Z,9.17
2023-03-20T07:10:01.864Z,9.18
2023-03-20T07:11:01.387Z,9.18
2023-03-20T07:12:04.521Z,9.19
2023-03-20T07:13:02.217Z,9.22
2023-03-20T07:14:01.760Z,9.23
2023-03-20T07:15:02.211Z,9.24
2023-03-20T07:16:04.814Z,9.29
2023-03-20T07:17:02.202Z,9.3
2023-03-20T07:18:01.637Z,9.31
2023-03-20T07:19:03.821Z,9.34
2023-03-20T07:20:01.552Z,9.36
2023-03-20T07:21:03.737Z,9.37
2023-03-20T07:22:01.587Z,9.39
2023-03-20T07:23:02.049Z,9.4
2023-03-20T07:24:01.504Z,9.45
2023-03-20T07:25:01.959Z,9.47
2023-03-20T07:26:01.500Z,9.5
2023-03-20T07:27:03.656Z,9.54
2023-03-20T07:28:01.392Z,9.56
2023-03-20T07:29:01.883Z,9.6
2023-03-20T07:30:01.400Z,9.64
2023-03-20T07:31:01.877Z,9.68
2023-03-20T07:32:01.342Z,9.71
2023-03-20T07:33:01.846Z,9.75
2023-03-20T07:34:02.278Z,9.79
2023-03-20T07:35:01.806Z,9.81
2023-03-20T07:36:02.358Z,9.82
2023-03-20T07:37:01.713Z,9.84
2023-03-20T07:38:02.228Z,9.85
2023-03-20T07:39:01.716Z,9.85
2023-03-20T07:40:02.210Z,9.84
2023-03-20T07:41:01.713Z,9.85
2023-03-20T07:42:02.202Z,9.85
2023-03-20T07:43:01.638Z,9.88
2023-03-20T07:44:02.117Z,9.89
2023-03-20T07:45:01.664Z,9.9
2023-03-20T07:46:02.213Z,9.91
2023-03-20T07:47:01.564Z,9.93
2023-03-20T07:48:03.753Z,9.93
2023-03-20T07:49:01.486Z,9.94
2023-03-20T07:50:01.975Z,9.97
2023-03-20T07:51:01.496Z,9.98
2023-03-20T07:52:01.962Z,9.99
2023-03-20T07:53:01.488Z,10
2023-03-20T07:54:01.997Z,10.03
2023-03-20T07:55:01.405Z,10.04
2023-03-20T07:56:01.904Z,10.04
2023-03-20T07:57:01.400Z,10.04
2023-03-20T07:58:03.547Z,10.06
2023-03-20T07:59:03.003Z,10.09
2023-03-20T08:00:01.828Z,10.11
2023-03-20T08:01:02.274Z,10.13
2023-03-20T08:02:01.776Z,10.16
2023-03-20T08:03:04.045Z,10.21
2023-03-20T08:04:01.969Z,10.24
2023-03-20T08:05:02.220Z,10.27
2023-03-20T08:06:01.738Z,10.31
2023-03-20T08:07:02.212Z,10.34
2023-03-20T08:08:01.629Z,10.35
2023-03-20T08:09:02.125Z,10.35
2023-03-20T08:10:01.641Z,10.36
2023-03-20T08:11:03.084Z,10.37
2023-03-20T08:12:01.804Z,10.38
2023-03-20T08:13:02.270Z,10.4
2023-03-20T08:14:01.822Z,10.41
2023-03-20T08:15:02.275Z,10.39
2023-03-20T08:16:03.397Z,10.39
2023-03-20T08:17:12.974Z,10.39
2023-03-20T08:18:01.715Z,10.37
2023-03-20T08:19:02.242Z,10.36
2023-03-20T08:20:01.645Z,10.37
2023-03-20T08:21:03.815Z,10.36
2023-03-20T08:22:01.562Z,10.35
2023-03-20T08:23:03.781Z,10.36
2023-03-20T08:24:01.586Z,10.36
2023-03-20T08:25:02.092Z,10.37
2023-03-20T08:26:01.578Z,10.38
2023-03-20T08:27:02.040Z,10.4
2023-03-20T08:28:01.474Z,10.43
2023-03-20T08:29:01.960Z,10.5
2023-03-20T08:30:01.498Z,10.56
2023-03-20T08:31:02.044Z,10.6
2023-03-20T08:32:01.404Z,10.65
2023-03-20T08:33:01.902Z,10.7
2023-03-20T08:34:01.392Z,10.73
2023-03-20T08:35:03.583Z,10.77
2023-03-20T08:36:01.403Z,10.8
2023-03-20T08:37:01.802Z,10.81
2023-03-20T08:38:02.294Z,10.84
2023-03-20T08:39:03.484Z,10.85
2023-03-20T08:40:03.969Z,10.88
2023-03-20T08:41:01.756Z,10.9
2023-03-20T08:42:02.210Z,10.95
2023-03-20T08:43:01.650Z,10.98
2023-03-20T08:44:02.118Z,11.02
2023-03-20T08:45:01.645Z,11.05
2023-03-20T08:46:02.185Z,11.1
2023-03-20T08:47:01.576Z,11.14
2023-03-20T08:48:02.120Z,11.18
2023-03-20T08:49:03.242Z,11.2
2023-03-20T08:50:03.716Z,11.22
2023-03-20T08:51:01.597Z,11.24
2023-03-20T08:52:03.722Z,11.25
2023-03-20T08:53:01.490Z,11.25
2023-03-20T08:54:02.013Z,11.28
2023-03-20T08:55:01.400Z,11.3
2023-03-20T08:56:01.898Z,11.32
2023-03-20T08:57:01.397Z,11.33
2023-03-20T08:58:03.547Z,11.37
2023-03-20T08:59:03.009Z,11.42
2023-03-20T09:00:01.789Z,11.46
2023-03-20T09:01:02.286Z,11.48
2023-03-20T09:02:03.536Z,11.54
2023-03-20T09:03:03.991Z,11.56
2023-03-20T09:04:01.739Z,11.58
2023-03-20T09:05:03.883Z,11.58
2023-03-20T09:06:01.717Z,11.61
2023-03-20T09:07:02.207Z,11.64
2023-03-20T09:08:01.653Z,11.69
2023-03-20T09:09:02.126Z,11.7
2023-03-20T09:10:01.679Z,11.7
2023-03-20T09:11:03.786Z,11.72
2023-03-20T09:12:03.309Z,11.75
2023-03-20T09:13:15.539Z,11.75
2023-03-20T09:14:03.245Z,11.77
2023-03-20T09:15:02.042Z,11.79
2023-03-20T09:16:03.210Z,11.77
2023-03-20T09:17:01.977Z,11.76
2023-03-20T09:18:04.151Z,11.75
2023-03-20T09:19:03.572Z,11.74
2023-03-20T09:20:03.074Z,11.75
2023-03-20T09:21:01.888Z,11.76
2023-03-20T09:22:01.328Z,11.79
2023-03-20T09:23:01.856Z,11.84
2023-03-20T09:24:02.990Z,11.89
2023-03-20T09:25:01.825Z,11.96
2023-03-20T09:26:02.293Z,12
2023-03-20T09:27:03.578Z,12.05
2023-03-20T09:28:03.962Z,12.06
2023-03-20T09:29:01.728Z,12.07
2023-03-20T09:30:02.212Z,12.06
2023-03-20T09:31:01.824Z,12.08
2023-03-20T09:32:02.209Z,12.12
2023-03-20T09:33:01.719Z,12.15
2023-03-20T09:34:02.119Z,12.14
2023-03-20T09:35:01.674Z,12.11
2023-03-20T09:36:02.221Z,12.11
2023-03-20T09:37:01.555Z,12.12
2023-03-20T09:38:02.045Z,12.12
2023-03-20T09:39:03.232Z,12.12
2023-03-20T09:40:03.735Z,12.11
2023-03-20T09:41:01.490Z,12.13
2023-03-20T09:42:01.972Z,12.13
2023-03-20T09:43:01.500Z,12.1
2023-03-20T09:44:01.974Z,12.07
2023-03-20T09:45:01.428Z,12.07
2023-03-20T09:46:01.928Z,12.12
2023-03-20T09:47:18.504Z,12.16
2023-03-20T09:48:03.560Z,12.23
2023-03-20T09:49:01.390Z,12.29
2023-03-20T09:50:01.842Z,12.34
2023-03-20T09:52:01.803Z,12.36
2023-03-20T09:53:02.279Z,12.35
2023-03-20T09:54:01.835Z,12.35
2023-03-20T09:55:04.011Z,12.31
2023-03-20T09:56:01.752Z,12.27
2023-03-20T09:57:02.239Z,12.25
2023-03-20T09:58:01.733Z,12.2
2023-03-20T09:59:02.215Z,12.17
2023-03-20T10:00:01.673Z,12.12
2023-03-20T10:01:02.109Z,12.08
2023-03-20T10:02:01.668Z,12.06
2023-03-20T10:03:03.802Z,12.06
2023-03-20T10:04:01.642Z,12.1
2023-03-20T10:05:02.120Z,12.14
2023-03-20T10:06:01.557Z,12.19
2023-03-20T10:07:02.032Z,12.22
2023-03-20T10:08:01.561Z,12.26
2023-03-20T10:09:02.032Z,12.32
2023-03-20T10:10:01.488Z,12.37
2023-03-20T10:11:01.948Z,12.41
2023-03-20T10:12:01.511Z,12.41
2023-03-20T10:13:01.972Z,12.38
2023-03-20T10:14:01.408Z,12.35
2023-03-20T10:15:01.871Z,12.34
2023-03-20T10:16:01.449Z,12.37
2023-03-20T10:17:01.894Z,12.44
2023-03-20T10:18:01.320Z,12.48
2023-03-20T10:19:01.796Z,12.55
2023-03-20T10:20:02.320Z,12.63
2023-03-20T10:21:01.791Z,12.7
2023-03-20T10:22:02.304Z,12.75
2023-03-20T10:23:03.388Z,12.79
2023-03-20T10:24:03.879Z,12.87
2023-03-20T10:25:03.393Z,12.9
2023-03-20T10:26:02.226Z,12.91
2023-03-20T10:27:01.649Z,12.91
2023-03-20T10:28:02.156Z,12.88
2023-03-20T10:29:03.238Z,12.86
2023-03-20T10:30:02.030Z,12.86
2023-03-20T10:31:01.563Z,12.87
2023-03-20T10:32:03.721Z,12.89
2023-03-20T10:33:03.340Z,12.91
2023-03-20T10:34:03.656Z,12.94
2023-03-20T10:35:01.560Z,12.96
2023-03-20T10:36:02.044Z,12.95
2023-03-20T10:37:01.425Z,12.95
2023-03-20T10:38:01.874Z,12.99
2023-03-20T10:39:01.408Z,13.05
2023-03-20T10:40:03.607Z,13.01
2023-03-20T10:41:01.340Z,13.03
2023-03-20T10:42:03.480Z,13.05
2023-03-20T10:43:03.992Z,13.09
2023-03-20T10:44:01.722Z,13.15
2023-03-20T10:45:02.194Z,13.2
2023-03-20T10:46:01.739Z,13.22
2023-03-20T10:47:02.247Z,13.24
2023-03-20T10:48:01.677Z,13.27
2023-03-20T10:49:02.153Z,13.24
2023-03-20T10:50:01.642Z,13.2
2023-03-20T10:51:03.818Z,13.2
2023-03-20T10:52:03.227Z,13.22
2023-03-20T10:53:03.730Z,13.24
2023-03-20T10:54:01.552Z,13.22
2023-03-20T10:55:03.655Z,13.16
2023-03-20T10:56:01.488Z,13.16
2023-03-20T10:57:01.979Z,13.21
2023-03-20T10:58:01.474Z,13.24
2023-03-20T10:59:03.628Z,13.25
2023-03-20T11:00:01.393Z,13.3
2023-03-20T11:01:03.663Z,13.38
2023-03-20T11:02:03.017Z,13.41
2023-03-20T11:03:01.896Z,13.43
2023-03-20T11:04:03.105Z,13.45
2023-03-20T11:05:03.471Z,13.48
2023-03-20T11:06:09.817Z,13.48
2023-03-20T11:07:01.720Z,13.5
2023-03-20T11:08:02.204Z,13.56
2023-03-20T11:09:01.750Z,13.67
2023-03-20T11:10:02.203Z,13.75
2023-03-20T11:11:01.723Z,13.75
2023-03-20T11:12:02.202Z,13.79
2023-03-20T11:13:01.726Z,13.88
2023-03-20T11:14:02.242Z,13.88
2023-03-20T11:15:01.648Z,13.82
2023-03-20T11:16:03.805Z,13.79
2023-03-20T11:17:01.635Z,13.68
2023-03-20T11:18:02.110Z,13.5
2023-03-20T11:19:02.732Z,13.35
2023-03-20T11:20:03.741Z,13.21
2023-03-20T11:21:01.561Z,13.05
2023-03-20T11:22:02.052Z,12.87
2023-03-20T11:23:01.489Z,12.72
2023-03-20T11:24:01.950Z,12.59
2023-03-20T11:25:01.626Z,12.49
2023-03-20T11:26:02.013Z,12.42
2023-03-20T11:27:03.086Z,12.34
2023-03-20T11:28:01.890Z,12.23
2023-03-20T11:29:01.332Z,12.14
2023-03-20T11:30:01.937Z,12.02
2023-03-20T11:31:04.829Z,11.92
2023-03-20T11:32:01.878Z,11.81
2023-03-20T11:33:02.366Z,11.63
2023-03-20T11:34:01.721Z,11.51
2023-03-20T11:35:03.874Z,11.43
2023-03-20T11:36:01.862Z,11.38
2023-03-20T11:37:10.024Z,11.31
2023-03-20T11:38:01.633Z,11.25
2023-03-20T11:39:02.117Z,11.23
2023-03-20T11:40:01.642Z,11.23
2023-03-20T11:41:02.131Z,11.2
2023-03-20T11:42:03.270Z,11.19
2023-03-20T11:43:03.720Z,11.2
2023-03-20T11:44:01.552Z,11.24
2023-03-20T11:45:02.049Z,11.28
2023-03-20T11:46:01.554Z,11.31
2023-03-20T11:47:01.954Z,11.34
2023-03-20T11:48:04.084Z,11.31
2023-03-20T11:49:01.959Z,11.32
2023-03-20T11:50:01.400Z,11.36
2023-03-20T11:51:03.553Z,11.44
2023-03-20T11:52:01.403Z,11.42
2023-03-20T11:53:01.868Z,11.42
2023-03-20T11:54:01.323Z,11.44
2023-03-20T11:55:01.788Z,11.48
2023-03-20T11:56:02.276Z,11.48
2023-03-20T11:57:01.794Z,11.52
2023-03-20T11:58:02.266Z,11.52
2023-03-20T11:59:03.423Z,11.54
2023-03-20T12:00:02.216Z,11.55
2023-03-20T12:01:01.715Z,11.57
2023-03-20T12:02:03.863Z,11.56
2023-03-20T12:03:01.633Z,11.54
2023-03-20T12:04:03.816Z,11.51
2023-03-20T12:05:01.574Z,11.45
2023-03-20T12:06:02.071Z,11.41
2023-03-20T12:07:01.553Z,11.34
2023-03-20T12:08:02.069Z,11.37
2023-03-20T12:09:03.172Z,11.33
2023-03-20T12:10:01.981Z,11.32
2023-03-20T12:11:03.158Z,11.33
2023-03-20T12:12:01.868Z,11.32
2023-03-20T12:13:01.411Z,11.29
2023-03-20T12:14:01.886Z,11.28
2023-03-20T12:15:02.997Z,11.26
2023-03-20T12:16:01.907Z,11.26
2023-03-20T12:17:02.280Z,11.27
2023-03-20T12:18:01.913Z,11.27
2023-03-20T12:19:02.322Z,11.28
2023-03-20T12:20:01.797Z,11.26
2023-03-20T12:21:02.201Z,11.25
2023-03-20T12:22:01.726Z,11.25
2023-03-20T12:23:02.220Z,11.24
2023-03-20T12:24:01.667Z,11.24
2023-03-20T12:25:02.134Z,11.24
2023-03-20T12:26:01.642Z,11.24
2023-03-20T12:27:02.111Z,11.2
2023-03-20T12:28:01.571Z,11.14
2023-03-20T12:29:02.062Z,11.09
2023-03-20T12:30:01.565Z,11.04
2023-03-20T12:31:02.078Z,11
2023-03-20T12:32:01.475Z,10.96
2023-03-20T12:33:03.697Z,10.93
2023-03-20T12:34:01.547Z,10.9
2023-03-20T12:35:01.944Z,10.89
2023-03-20T12:36:01.458Z,10.86
2023-03-20T12:37:03.547Z,10.86
2023-03-20T12:38:01.396Z,10.85
2023-03-20T12:39:03.561Z,10.87
2023-03-20T12:40:02.989Z,10.87
2023-03-20T12:41:01.802Z,10.86
2023-03-20T12:42:02.295Z,10.87
2023-03-20T12:43:03.396Z,10.89
2023-03-20T12:44:03.974Z,10.92
2023-03-20T12:45:01.736Z,10.95
2023-03-20T12:46:02.200Z,10.97
2023-03-20T12:47:01.678Z,11
2023-03-20T12:48:02.127Z,10.97
2023-03-20T12:49:01.641Z,10.97
2023-03-20T12:50:02.141Z,10.97
2023-03-20T12:51:01.559Z,11
2023-03-20T12:52:02.060Z,11.02
2023-03-20T12:53:01.543Z,11.02
2023-03-20T12:54:02.082Z,11.03
2023-03-20T12:55:03.253Z,11.02
2023-03-20T12:56:01.964Z,11.02
2023-03-20T12:57:01.485Z,11.03
2023-03-20T12:58:01.959Z,11.07
2023-03-20T12:59:03.103Z,11.1
2023-03-20T13:00:03.570Z,11.09
2023-03-20T13:01:01.407Z,11.11
2023-03-20T13:02:01.991Z,11.14
2023-03-20T13:03:01.452Z,11.19
2023-03-20T13:04:01.880Z,11.22
2023-03-20T13:05:01.469Z,11.24
2023-03-20T13:06:01.881Z,11.27
2023-03-20T13:07:01.332Z,11.29
2023-03-20T13:08:01.809Z,11.29
2023-03-20T13:10:03.532Z,11.27
2023-03-20T13:11:03.271Z,11.26
2023-03-20T13:12:02.056Z,11.26
2023-03-20T13:13:01.512Z,11.25
2023-03-20T13:14:03.650Z,11.25
2023-03-20T13:15:01.517Z,11.24
2023-03-20T13:16:02.008Z,11.24
2023-03-20T13:17:01.451Z,11.23